sensor_id;sensor_type;location;lat;lon;timestamp;P1;durP1;ratioP1;P2;durP2;ratioP2
71360;SDS011;59166;48.908;1.870;2022-09-02T00:02:22;9.73;;;3.80;;
71360;SDS011;59166;48.908;1.870;2022-09-02T00:07:22;8.10;;;3.80;;
71360;SDS011;59166;48.908;1.870;2022-09-02T00:12:23;9.80;;;3.97;;
71360;SDS011;59166;48.908;1.870;2022-09-02T00:17:25;11.48;;;4.80;;
71360;SDS011;59166;48.908;1.870;2022-09-02T00:22:26;11.93;;;5.20;;
71360;SDS011;59166;48.908;1.870;2022-09-02T00:27:26;14.27;;;5.28;;
71360;SDS011;59166;48.908;1.870;2022-09-02T00:32:28;9.73;;;4.53;;
71360;SDS011;59166;48.908;1.870;2022-09-02T00:37:29;13.02;;;5.97;;
71360;SDS011;59166;48.908;1.870;2022-09-02T00:42:30;11.47;;;5.33;;
71360;SDS011;59166;48.908;1.870;2022-09-02T00:47:32;11.30;;;5.53;;
71360;SDS011;59166;48.908;1.870;2022-09-02T00:52:34;13.38;;;6.63;;
71360;SDS011;59166;48.908;1.870;2022-09-02T00:57:40;12.02;;;6.45;;
71360;SDS011;59166;48.908;1.870;2022-09-02T01:02:45;10.57;;;6.10;;
71360;SDS011;59166;48.908;1.870;2022-09-02T01:07:50;10.67;;;6.60;;
71360;SDS011;59166;48.908;1.870;2022-09-02T01:12:54;9.50;;;4.72;;
71360;SDS011;59166;48.908;1.870;2022-09-02T01:17:56;10.80;;;6.03;;
71360;SDS011;59166;48.908;1.870;2022-09-02T01:22:59;10.93;;;5.70;;
71360;SDS011;59166;48.908;1.870;2022-09-02T01:28:00;11.00;;;6.30;;
71360;SDS011;59166;48.908;1.870;2022-09-02T01:33:03;10.60;;;6.70;;
71360;SDS011;59166;48.908;1.870;2022-09-02T01:38:05;11.20;;;6.50;;
71360;SDS011;59166;48.908;1.870;2022-09-02T01:43:07;11.68;;;7.47;;
71360;SDS011;59166;48.908;1.870;2022-09-02T01:48:10;12.02;;;7.72;;
71360;SDS011;59166;48.908;1.870;2022-09-02T01:53:12;13.97;;;8.70;;
71360;SDS011;59166;48.908;1.870;2022-09-02T01:58:13;18.27;;;9.40;;
71360;SDS011;59166;48.908;1.870;2022-09-02T02:03:14;14.40;;;9.10;;
71360;SDS011;59166;48.908;1.870;2022-09-02T02:08:16;13.75;;;8.48;;
71360;SDS011;59166;48.908;1.870;2022-09-02T02:13:17;15.57;;;9.43;;
71360;SDS011;59166;48.908;1.870;2022-09-02T02:18:17;13.13;;;8.70;;
71360;SDS011;59166;48.908;1.870;2022-09-02T02:23:19;14.53;;;9.37;;
71360;SDS011;59166;48.908;1.870;2022-09-02T02:28:20;15.45;;;8.50;;
71360;SDS011;59166;48.908;1.870;2022-09-02T02:33:21;17.90;;;9.20;;
71360;SDS011;59166;48.908;1.870;2022-09-02T02:38:23;15.33;;;9.00;;
71360;SDS011;59166;48.908;1.870;2022-09-02T02:43:24;17.63;;;9.40;;
71360;SDS011;59166;48.908;1.870;2022-09-02T02:48:24;16.87;;;9.40;;
71360;SDS011;59166;48.908;1.870;2022-09-02T02:53:26;13.93;;;8.97;;
71360;SDS011;59166;48.908;1.870;2022-09-02T02:58:27;21.20;;;9.47;;
71360;SDS011;59166;48.908;1.870;2022-09-02T03:03:29;17.83;;;10.50;;
71360;SDS011;59166;48.908;1.870;2022-09-02T03:08:31;18.55;;;10.00;;
71360;SDS011;59166;48.908;1.870;2022-09-02T03:13:32;18.10;;;10.40;;
71360;SDS011;59166;48.908;1.870;2022-09-02T03:18:33;15.77;;;9.68;;
71360;SDS011;59166;48.908;1.870;2022-09-02T03:23:35;16.73;;;9.53;;
71360;SDS011;59166;48.908;1.870;2022-09-02T03:28:36;14.45;;;9.10;;
71360;SDS011;59166;48.908;1.870;2022-09-02T03:33:37;16.38;;;10.00;;
71360;SDS011;59166;48.908;1.870;2022-09-02T03:38:39;14.20;;;8.10;;
71360;SDS011;59166;48.908;1.870;2022-09-02T03:43:39;12.85;;;7.60;;
71360;SDS011;59166;48.908;1.870;2022-09-02T03:48:40;13.50;;;8.13;;
71360;SDS011;59166;48.908;1.870;2022-09-02T03:53:42;13.53;;;8.13;;
71360;SDS011;59166;48.908;1.870;2022-09-02T03:58:44;12.85;;;7.30;;
71360;SDS011;59166;48.908;1.870;2022-09-02T04:03:46;11.18;;;6.53;;
71360;SDS011;59166;48.908;1.870;2022-09-02T04:08:48;11.90;;;6.40;;
71360;SDS011;59166;48.908;1.870;2022-09-02T04:13:49;11.32;;;6.40;;
71360;SDS011;59166;48.908;1.870;2022-09-02T04:18:51;11.95;;;6.55;;
71360;SDS011;59166;48.908;1.870;2022-09-02T04:23:54;12.23;;;6.53;;
71360;SDS011;59166;48.908;1.870;2022-09-02T04:28:55;11.18;;;6.55;;
71360;SDS011;59166;48.908;1.870;2022-09-02T04:33:56;12.00;;;6.73;;
71360;SDS011;59166;48.908;1.870;2022-09-02T04:38:58;14.18;;;8.10;;
71360;SDS011;59166;48.908;1.870;2022-09-02T04:44:00;12.30;;;7.83;;
71360;SDS011;59166;48.908;1.870;2022-09-02T04:49:01;12.37;;;7.63;;
71360;SDS011;59166;48.908;1.870;2022-09-02T04:54:03;13.20;;;7.68;;
71360;SDS011;59166;48.908;1.870;2022-09-02T04:59:04;15.55;;;8.23;;
71360;SDS011;59166;48.908;1.870;2022-09-02T05:04:05;14.43;;;8.93;;
71360;SDS011;59166;48.908;1.870;2022-09-02T05:09:08;14.43;;;9.32;;
71360;SDS011;59166;48.908;1.870;2022-09-02T05:14:08;18.93;;;9.77;;
71360;SDS011;59166;48.908;1.870;2022-09-02T05:19:09;15.37;;;9.33;;
71360;SDS011;59166;48.908;1.870;2022-09-02T05:24:11;15.90;;;10.00;;
71360;SDS011;59166;48.908;1.870;2022-09-02T05:29:12;15.45;;;9.32;;
71360;SDS011;59166;48.908;1.870;2022-09-02T05:34:13;17.88;;;9.93;;
71360;SDS011;59166;48.908;1.870;2022-09-02T05:39:16;14.87;;;9.40;;
71360;SDS011;59166;48.908;1.870;2022-09-02T05:44:17;17.98;;;9.52;;
71360;SDS011;59166;48.908;1.870;2022-09-02T05:49:17;14.32;;;8.55;;
71360;SDS011;59166;48.908;1.870;2022-09-02T05:54:20;15.50;;;9.23;;
71360;SDS011;59166;48.908;1.870;2022-09-02T05:59:23;14.65;;;8.95;;
71360;SDS011;59166;48.908;1.870;2022-09-02T06:04:25;15.23;;;9.43;;
71360;SDS011;59166;48.908;1.870;2022-09-02T06:09:27;15.57;;;9.27;;
71360;SDS011;59166;48.908;1.870;2022-09-02T06:14:28;17.00;;;10.63;;
71360;SDS011;59166;48.908;1.870;2022-09-02T06:19:29;18.08;;;10.63;;
71360;SDS011;59166;48.908;1.870;2022-09-02T06:24:32;17.98;;;10.43;;
71360;SDS011;59166;48.908;1.870;2022-09-02T06:29:33;17.27;;;10.57;;
71360;SDS011;59166;48.908;1.870;2022-09-02T06:34:33;17.67;;;10.80;;
71360;SDS011;59166;48.908;1.870;2022-09-02T06:39:35;19.13;;;10.37;;
71360;SDS011;59166;48.908;1.870;2022-09-02T06:44:36;20.35;;;11.32;;
71360;SDS011;59166;48.908;1.870;2022-09-02T06:49:36;19.13;;;11.03;;
71360;SDS011;59166;48.908;1.870;2022-09-02T06:54:39;18.47;;;11.23;;
71360;SDS011;59166;48.908;1.870;2022-09-02T06:59:39;20.02;;;10.90;;
71360;SDS011;59166;48.908;1.870;2022-09-02T07:04:40;18.00;;;11.00;;
71360;SDS011;59166;48.908;1.870;2022-09-02T07:09:42;17.70;;;10.85;;
71360;SDS011;59166;48.908;1.870;2022-09-02T07:14:43;17.67;;;11.30;;
71360;SDS011;59166;48.908;1.870;2022-09-02T07:19:44;16.98;;;10.77;;
71360;SDS011;59166;48.908;1.870;2022-09-02T07:24:46;18.10;;;10.43;;
71360;SDS011;59166;48.908;1.870;2022-09-02T07:29:47;18.50;;;10.63;;
71360;SDS011;59166;48.908;1.870;2022-09-02T07:34:48;16.80;;;10.27;;
71360;SDS011;59166;48.908;1.870;2022-09-02T07:39:50;15.63;;;10.33;;
71360;SDS011;59166;48.908;1.870;2022-09-02T07:44:50;16.92;;;10.38;;
71360;SDS011;59166;48.908;1.870;2022-09-02T07:49:51;16.43;;;10.07;;
71360;SDS011;59166;48.908;1.870;2022-09-02T07:54:53;16.63;;;10.13;;
71360;SDS011;59166;48.908;1.870;2022-09-02T07:59:54;21.10;;;10.05;;
71360;SDS011;59166;48.908;1.870;2022-09-02T08:04:54;15.27;;;10.13;;
71360;SDS011;59166;48.908;1.870;2022-09-02T08:09:57;18.88;;;11.05;;
71360;SDS011;59166;48.908;1.870;2022-09-02T08:14:57;17.33;;;10.50;;
71360;SDS011;59166;48.908;1.870;2022-09-02T08:19:58;17.02;;;10.63;;
71360;SDS011;59166;48.908;1.870;2022-09-02T08:25:00;16.40;;;9.93;;
71360;SDS011;59166;48.908;1.870;2022-09-02T08:30:01;16.77;;;10.20;;
71360;SDS011;59166;48.908;1.870;2022-09-02T08:35:02;15.80;;;9.83;;
71360;SDS011;59166;48.908;1.870;2022-09-02T08:40:06;14.55;;;9.32;;
71360;SDS011;59166;48.908;1.870;2022-09-02T08:45:13;16.30;;;10.25;;
71360;SDS011;59166;48.908;1.870;2022-09-02T08:50:20;15.07;;;9.87;;
71360;SDS011;59166;48.908;1.870;2022-09-02T08:55:23;14.05;;;9.25;;
71360;SDS011;59166;48.908;1.870;2022-09-02T09:00:29;14.93;;;9.45;;
71360;SDS011;59166;48.908;1.870;2022-09-02T09:05:40;15.43;;;9.40;;
71360;SDS011;59166;48.908;1.870;2022-09-02T09:10:51;14.03;;;9.17;;
71360;SDS011;59166;48.908;1.870;2022-09-02T09:15:58;13.80;;;9.18;;
71360;SDS011;59166;48.908;1.870;2022-09-02T09:21:08;14.90;;;9.50;;
71360;SDS011;59166;48.908;1.870;2022-09-02T09:26:11;15.13;;;9.70;;
71360;SDS011;59166;48.908;1.870;2022-09-02T09:31:16;15.10;;;9.80;;
71360;SDS011;59166;48.908;1.870;2022-09-02T09:36:18;15.27;;;9.77;;
71360;SDS011;59166;48.908;1.870;2022-09-02T09:41:21;15.60;;;9.80;;
71360;SDS011;59166;48.908;1.870;2022-09-02T09:46:27;15.90;;;9.77;;
71360;SDS011;59166;48.908;1.870;2022-09-02T09:51:29;15.57;;;9.57;;
71360;SDS011;59166;48.908;1.870;2022-09-02T09:56:31;14.75;;;9.63;;
71360;SDS011;59166;48.908;1.870;2022-09-02T10:01:33;14.40;;;9.37;;
71360;SDS011;59166;48.908;1.870;2022-09-02T10:06:37;15.77;;;9.90;;
71360;SDS011;59166;48.908;1.870;2022-09-02T10:11:52;15.48;;;8.85;;
71360;SDS011;59166;48.908;1.870;2022-09-02T10:16:56;13.88;;;8.88;;
71360;SDS011;59166;48.908;1.870;2022-09-02T10:22:09;14.70;;;8.83;;
71360;SDS011;59166;48.908;1.870;2022-09-02T10:27:33;13.27;;;8.63;;
71360;SDS011;59166;48.908;1.870;2022-09-02T10:32:52;15.77;;;8.88;;
71360;SDS011;59166;48.908;1.870;2022-09-02T10:38:08;14.83;;;8.70;;
71360;SDS011;59166;48.908;1.870;2022-09-02T10:43:31;14.25;;;8.48;;
71360;SDS011;59166;48.908;1.870;2022-09-02T10:48:50;14.38;;;8.85;;
71360;SDS011;59166;48.908;1.870;2022-09-02T10:54:03;12.40;;;7.70;;
71360;SDS011;59166;48.908;1.870;2022-09-02T10:59:15;13.77;;;7.60;;
71360;SDS011;59166;48.908;1.870;2022-09-02T11:04:20;12.90;;;7.78;;
71360;SDS011;59166;48.908;1.870;2022-09-02T11:09:31;12.80;;;7.43;;
71360;SDS011;59166;48.908;1.870;2022-09-02T11:14:39;14.17;;;7.37;;
71360;SDS011;59166;48.908;1.870;2022-09-02T11:19:53;13.15;;;7.85;;
71360;SDS011;59166;48.908;1.870;2022-09-02T11:24:59;13.43;;;7.95;;
71360;SDS011;59166;48.908;1.870;2022-09-02T11:30:10;13.43;;;7.37;;
71360;SDS011;59166;48.908;1.870;2022-09-02T11:35:15;12.70;;;8.00;;
71360;SDS011;59166;48.908;1.870;2022-09-02T11:40:21;13.88;;;8.15;;
71360;SDS011;59166;48.908;1.870;2022-09-02T11:45:44;13.25;;;7.88;;
71360;SDS011;59166;48.908;1.870;2022-09-02T11:51:00;12.90;;;7.67;;
71360;SDS011;59166;48.908;1.870;2022-09-02T11:56:14;13.38;;;8.13;;
71360;SDS011;59166;48.908;1.870;2022-09-02T12:01:22;12.40;;;7.57;;
71360;SDS011;59166;48.908;1.870;2022-09-02T12:06:26;12.73;;;7.80;;
71360;SDS011;59166;48.908;1.870;2022-09-02T12:11:37;14.07;;;7.85;;
71360;SDS011;59166;48.908;1.870;2022-09-02T12:16:59;12.20;;;8.00;;
71360;SDS011;59166;48.908;1.870;2022-09-02T12:27:35;14.77;;;8.25;;
71360;SDS011;59166;48.908;1.870;2022-09-02T12:43:30;14.60;;;8.70;;
71360;SDS011;59166;48.908;1.870;2022-09-02T12:48:38;15.52;;;9.77;;
71360;SDS011;59166;48.908;1.870;2022-09-02T12:53:45;15.17;;;9.27;;
71360;SDS011;59166;48.908;1.870;2022-09-02T12:58:50;13.70;;;8.53;;
71360;SDS011;59166;48.908;1.870;2022-09-02T13:03:59;13.60;;;8.05;;
71360;SDS011;59166;48.908;1.870;2022-09-02T13:09:14;14.52;;;8.48;;
71360;SDS011;59166;48.908;1.870;2022-09-02T13:14:48;12.40;;;8.20;;
71360;SDS011;59166;48.908;1.870;2022-09-02T13:19:59;12.75;;;7.93;;
71360;SDS011;59166;48.908;1.870;2022-09-02T13:31:01;13.63;;;7.70;;
71360;SDS011;59166;48.908;1.870;2022-09-02T13:36:10;12.75;;;7.65;;
71360;SDS011;59166;48.908;1.870;2022-09-02T13:41:27;10.32;;;6.40;;
71360;SDS011;59166;48.908;1.870;2022-09-02T13:46:32;12.93;;;6.80;;
71360;SDS011;59166;48.908;1.870;2022-09-02T13:51:34;12.43;;;6.90;;
71360;SDS011;59166;48.908;1.870;2022-09-02T13:56:35;13.90;;;7.10;;
71360;SDS011;59166;48.908;1.870;2022-09-02T14:01:36;9.30;;;5.10;;
71360;SDS011;59166;48.908;1.870;2022-09-02T14:06:39;10.05;;;4.85;;
71360;SDS011;59166;48.908;1.870;2022-09-02T14:11:42;7.70;;;3.80;;
71360;SDS011;59166;48.908;1.870;2022-09-02T14:16:43;7.83;;;3.93;;
71360;SDS011;59166;48.908;1.870;2022-09-02T14:21:46;8.50;;;4.13;;
71360;SDS011;59166;48.908;1.870;2022-09-02T14:26:49;9.50;;;3.35;;
71360;SDS011;59166;48.908;1.870;2022-09-02T14:32:02;6.83;;;3.20;;
71360;SDS011;59166;48.908;1.870;2022-09-02T14:37:15;6.50;;;3.20;;
71360;SDS011;59166;48.908;1.870;2022-09-02T14:42:18;6.68;;;3.22;;
71360;SDS011;59166;48.908;1.870;2022-09-02T14:47:19;6.40;;;3.00;;
71360;SDS011;59166;48.908;1.870;2022-09-02T14:52:24;6.78;;;2.90;;
71360;SDS011;59166;48.908;1.870;2022-09-02T14:57:27;8.23;;;3.10;;
71360;SDS011;59166;48.908;1.870;2022-09-02T15:02:30;6.13;;;2.87;;
71360;SDS011;59166;48.908;1.870;2022-09-02T15:07:34;6.00;;;2.80;;
71360;SDS011;59166;48.908;1.870;2022-09-02T15:12:36;6.10;;;2.80;;
71360;SDS011;59166;48.908;1.870;2022-09-02T15:17:42;6.77;;;2.70;;
71360;SDS011;59166;48.908;1.870;2022-09-02T15:22:44;7.40;;;2.90;;
71360;SDS011;59166;48.908;1.870;2022-09-02T15:27:45;6.80;;;3.03;;
71360;SDS011;59166;48.908;1.870;2022-09-02T15:32:45;6.93;;;2.92;;
71360;SDS011;59166;48.908;1.870;2022-09-02T15:37:49;6.00;;;2.80;;
71360;SDS011;59166;48.908;1.870;2022-09-02T15:42:50;6.22;;;2.95;;
71360;SDS011;59166;48.908;1.870;2022-09-02T15:47:50;6.00;;;2.70;;
71360;SDS011;59166;48.908;1.870;2022-09-02T15:52:52;8.03;;;3.20;;
71360;SDS011;59166;48.908;1.870;2022-09-02T15:57:53;6.47;;;3.28;;
71360;SDS011;59166;48.908;1.870;2022-09-02T16:02:53;8.43;;;3.60;;
71360;SDS011;59166;48.908;1.870;2022-09-02T16:07:55;8.82;;;3.35;;
71360;SDS011;59166;48.908;1.870;2022-09-02T16:12:56;7.00;;;2.92;;
71360;SDS011;59166;48.908;1.870;2022-09-02T16:17:57;6.80;;;3.20;;
71360;SDS011;59166;48.908;1.870;2022-09-02T16:22:59;8.00;;;3.33;;
71360;SDS011;59166;48.908;1.870;2022-09-02T16:27:59;6.28;;;2.60;;
71360;SDS011;59166;48.908;1.870;2022-09-02T16:33:00;6.73;;;2.60;;
71360;SDS011;59166;48.908;1.870;2022-09-02T16:38:02;6.23;;;2.47;;
71360;SDS011;59166;48.908;1.870;2022-09-02T16:43:02;6.60;;;2.85;;
71360;SDS011;59166;48.908;1.870;2022-09-02T16:48:03;6.00;;;2.77;;
71360;SDS011;59166;48.908;1.870;2022-09-02T16:53:05;6.72;;;2.72;;
71360;SDS011;59166;48.908;1.870;2022-09-02T16:58:06;5.90;;;2.60;;
71360;SDS011;59166;48.908;1.870;2022-09-02T17:03:08;6.10;;;2.88;;
71360;SDS011;59166;48.908;1.870;2022-09-02T17:08:11;6.28;;;3.17;;
71360;SDS011;59166;48.908;1.870;2022-09-02T17:13:11;7.17;;;3.20;;
71360;SDS011;59166;48.908;1.870;2022-09-02T17:18:12;6.82;;;3.10;;
71360;SDS011;59166;48.908;1.870;2022-09-02T17:23:14;6.40;;;3.30;;
71360;SDS011;59166;48.908;1.870;2022-09-02T17:28:14;7.60;;;3.50;;
71360;SDS011;59166;48.908;1.870;2022-09-02T17:33:15;7.90;;;3.70;;
71360;SDS011;59166;48.908;1.870;2022-09-02T17:38:17;8.90;;;3.40;;
71360;SDS011;59166;48.908;1.870;2022-09-02T17:43:19;6.82;;;3.50;;
71360;SDS011;59166;48.908;1.870;2022-09-02T17:48:19;8.37;;;4.10;;
71360;SDS011;59166;48.908;1.870;2022-09-02T17:53:21;8.00;;;3.97;;
71360;SDS011;59166;48.908;1.870;2022-09-02T17:58:22;8.33;;;4.07;;
71360;SDS011;59166;48.908;1.870;2022-09-02T18:03:29;7.90;;;4.50;;
71360;SDS011;59166;48.908;1.870;2022-09-02T18:08:47;8.20;;;4.28;;
71360;SDS011;59166;48.908;1.870;2022-09-02T18:13:55;8.73;;;4.70;;
71360;SDS011;59166;48.908;1.870;2022-09-02T18:19:11;8.75;;;4.47;;
71360;SDS011;59166;48.908;1.870;2022-09-02T18:24:23;8.02;;;4.55;;
71360;SDS011;59166;48.908;1.870;2022-09-02T18:29:38;8.10;;;4.50;;
71360;SDS011;59166;48.908;1.870;2022-09-02T18:34:47;8.40;;;4.57;;
71360;SDS011;59166;48.908;1.870;2022-09-02T18:40:01;8.00;;;4.35;;
71360;SDS011;59166;48.908;1.870;2022-09-02T18:45:08;9.53;;;4.60;;
71360;SDS011;59166;48.908;1.870;2022-09-02T18:50:18;9.93;;;4.80;;
71360;SDS011;59166;48.908;1.870;2022-09-02T18:55:24;8.48;;;4.82;;
71360;SDS011;59166;48.908;1.870;2022-09-02T19:00:32;8.85;;;4.90;;
71360;SDS011;59166;48.908;1.870;2022-09-02T19:05:40;8.83;;;4.90;;
71360;SDS011;59166;48.908;1.870;2022-09-02T19:10:42;9.60;;;4.97;;
71360;SDS011;59166;48.908;1.870;2022-09-02T19:15:42;8.83;;;5.10;;
71360;SDS011;59166;48.908;1.870;2022-09-02T19:20:43;8.52;;;4.63;;
71360;SDS011;59166;48.908;1.870;2022-09-02T19:25:46;9.30;;;5.00;;
71360;SDS011;59166;48.908;1.870;2022-09-02T19:30:46;8.80;;;4.95;;
71360;SDS011;59166;48.908;1.870;2022-09-02T19:35:57;9.30;;;4.80;;
71360;SDS011;59166;48.908;1.870;2022-09-02T19:40:59;10.30;;;5.10;;
71360;SDS011;59166;48.908;1.870;2022-09-02T19:45:59;9.43;;;5.00;;
71360;SDS011;59166;48.908;1.870;2022-09-02T19:51:00;9.63;;;5.10;;
71360;SDS011;59166;48.908;1.870;2022-09-02T19:56:03;9.98;;;5.40;;
71360;SDS011;59166;48.908;1.870;2022-09-02T20:01:05;9.25;;;5.20;;
71360;SDS011;59166;48.908;1.870;2022-09-02T20:06:06;9.33;;;5.13;;
71360;SDS011;59166;48.908;1.870;2022-09-02T20:11:08;9.60;;;5.00;;
71360;SDS011;59166;48.908;1.870;2022-09-02T20:16:14;8.67;;;5.10;;
71360;SDS011;59166;48.908;1.870;2022-09-02T20:21:17;9.80;;;5.33;;
71360;SDS011;59166;48.908;1.870;2022-09-02T20:26:26;10.75;;;5.40;;
71360;SDS011;59166;48.908;1.870;2022-09-02T20:31:51;10.18;;;5.60;;
71360;SDS011;59166;48.908;1.870;2022-09-02T20:37:01;9.17;;;5.20;;
71360;SDS011;59166;48.908;1.870;2022-09-02T20:42:16;10.00;;;5.90;;
71360;SDS011;59166;48.908;1.870;2022-09-02T20:47:33;9.88;;;5.35;;
71360;SDS011;59166;48.908;1.870;2022-09-02T20:52:49;9.13;;;5.50;;
71360;SDS011;59166;48.908;1.870;2022-09-02T20:58:04;9.73;;;5.40;;
71360;SDS011;59166;48.908;1.870;2022-09-02T21:03:11;9.07;;;5.68;;
71360;SDS011;59166;48.908;1.870;2022-09-02T21:08:16;9.23;;;5.60;;
71360;SDS011;59166;48.908;1.870;2022-09-02T21:13:25;10.67;;;5.83;;
71360;SDS011;59166;48.908;1.870;2022-09-02T21:18:34;10.48;;;5.57;;
71360;SDS011;59166;48.908;1.870;2022-09-02T21:23:40;8.98;;;5.60;;
71360;SDS011;59166;48.908;1.870;2022-09-02T21:28:47;11.00;;;6.00;;
71360;SDS011;59166;48.908;1.870;2022-09-02T21:33:51;10.20;;;6.00;;
71360;SDS011;59166;48.908;1.870;2022-09-02T21:38:54;9.90;;;6.10;;
71360;SDS011;59166;48.908;1.870;2022-09-02T21:44:01;11.40;;;6.17;;
71360;SDS011;59166;48.908;1.870;2022-09-02T21:49:09;10.10;;;6.22;;
71360;SDS011;59166;48.908;1.870;2022-09-02T21:54:32;10.52;;;6.28;;
71360;SDS011;59166;48.908;1.870;2022-09-02T21:59:47;11.07;;;6.50;;
71360;SDS011;59166;48.908;1.870;2022-09-02T22:04:59;10.17;;;6.37;;
71360;SDS011;59166;48.908;1.870;2022-09-02T22:10:07;9.93;;;6.25;;
71360;SDS011;59166;48.908;1.870;2022-09-02T22:15:20;10.07;;;6.30;;
71360;SDS011;59166;48.908;1.870;2022-09-02T22:20:27;10.93;;;6.57;;
71360;SDS011;59166;48.908;1.870;2022-09-02T22:25:33;12.35;;;6.50;;
71360;SDS011;59166;48.908;1.870;2022-09-02T22:30:35;10.73;;;6.63;;
71360;SDS011;59166;48.908;1.870;2022-09-02T22:35:43;12.63;;;6.85;;
71360;SDS011;59166;48.908;1.870;2022-09-02T22:40:52;10.43;;;6.55;;
71360;SDS011;59166;48.908;1.870;2022-09-02T22:45:59;15.00;;;6.87;;
71360;SDS011;59166;48.908;1.870;2022-09-02T22:51:08;9.87;;;6.47;;
71360;SDS011;59166;48.908;1.870;2022-09-02T22:56:13;10.52;;;6.68;;
71360;SDS011;59166;48.908;1.870;2022-09-02T23:01:26;12.50;;;6.90;;
71360;SDS011;59166;48.908;1.870;2022-09-02T23:06:33;12.43;;;7.17;;
71360;SDS011;59166;48.908;1.870;2022-09-02T23:11:35;11.13;;;7.10;;
71360;SDS011;59166;48.908;1.870;2022-09-02T23:22:08;12.15;;;7.50;;
71360;SDS011;59166;48.908;1.870;2022-09-02T23:27:16;12.55;;;7.10;;
71360;SDS011;59166;48.908;1.870;2022-09-02T23:32:30;11.97;;;6.97;;
71360;SDS011;59166;48.908;1.870;2022-09-02T23:37:46;11.50;;;7.60;;
71360;SDS011;59166;48.908;1.870;2022-09-02T23:42:58;12.85;;;7.95;;
71360;SDS011;59166;48.908;1.870;2022-09-02T23:48:13;14.02;;;7.78;;
71360;SDS011;59166;48.908;1.870;2022-09-02T23:53:23;13.70;;;7.97;;
71360;SDS011;59166;48.908;1.870;2022-09-02T23:58:35;12.57;;;7.95;;
